Airfield :
LOGIN :

Register | Disclaimer

   EN    FR    IT 

 










Legend :    VFR   Marginal VFR   IFR   Intensive IFR   Very Intensive IFR
Visi :
Ceiling :
>= 8 km
>= 3000ft
5 to 8 km
1000 to 3000 ft
1500m to 5 km
500 to 1000 ft
800 to 1500m
200 to 500 ft
< 800m
< 200 ft
Symbols :   Thunderstorms  Fog  Heavy snow  Heavy precipitations  Wind > 20 kt
SIGMETs :     Misc.  Thunderstorms  Icing  Turbulence  Mountain Waves  Volcanic Ashes







- Airport Elevation : 364 ft
- IATA code : FRA


EDDF - Frankfurt Int.

CURRENT METAR :
  • 191820Z 19006KT 9999 BKN040 07/03 Q1021 NOSIG

EXPIRED METARs :
  • 191750Z 18005KT 9999 BKN040 BKN080 07/03 Q1021 NOSIG
  • 191720Z 18007KT 160V260 9999 BKN040 07/03 Q1021 NOSIG
  • 191650Z 18007KT 9999 BKN045 08/03 Q1021 NOSIG
  • 191620Z 18007KT 9999 SCT040 BKN050 08/03 Q1021 NOSIG
  • 191550Z 18007KT 9999 VCSH FEW030 BKN050 08/03 Q1021 NOSIG

TAF COR TAF EDDF
Valid from the 19 at 18:00 until the 21 at 00:00 UTC


191759Z 1918/2024 21006KT 9999 BKN025
PROB30
TEMPO 2006/2009 BKN014
BECMG 2009/2012 21012KT
TEMPO 2013/2018 22015G25KT RA BKN012
TEMPO 2018/2024 23015G25KT BKN010
No reported NOTAMs for that airfield.



MET'MAP, your aeronautical weather chart ! - Copyright ORBIFLY December 2007 - Disclaimer

ORBIFLY MET'MAP TEAM :

Programming & Development : Alexandra Zaïnal
Concept & Development : Baudouin d'Aumeries
Co-Development & Prog : Marc-Olivier Méhu
Technical & hardware support : Manuel Goepfert

Contact : metmap@orbifly.com




SOURCES & CREDITS :

   NOAA